Time;durP1;ratioP1;P1;durP2;ratioP2;P2;SDS_P1;SDS_P2;PMS_P1;PMS_P2;Temp;Humidity;BMP_temperature;BMP_pressure;BME280_temperature;BME280_humidity;BME280_pressure;Samples;Min_cycle;Max_cycle;Signal;HPM_P1;HPM_P2
2021/03/03 00:00:05;;;;;;;53.80;25.35;;;;;;;5.44;80.49;102379.53;4932478;29;20043;-53
2021/03/03 00:02:31;;;;;;;58.05;24.77;;;;;;;5.45;80.41;102372.91;4916306;29;20074;-53
2021/03/03 00:04:58;;;;;;;56.63;24.50;;;;;;;5.47;80.51;102376.25;4932554;29;20462;-52
2021/03/03 00:07:25;;;;;;;53.67;25.13;;;;;;;5.44;80.64;102367.72;4931422;29;20074;-52
2021/03/03 00:09:51;;;;;;;58.83;24.48;;;;;;;5.45;80.45;102377.59;4933044;29;20131;-53
2021/03/03 00:12:17;;;;;;;59.72;27.10;;;;;;;5.49;80.60;102384.19;4932662;29;20457;-54
2021/03/03 00:14:46;;;;;;;55.20;24.08;;;;;;;5.48;80.30;102377.88;4932144;29;20577;-55
2021/03/03 00:17:13;;;;;;;55.10;23.50;;;;;;;5.50;80.49;102372.13;4930887;29;20043;-51
2021/03/03 00:19:41;;;;;;;64.28;26.40;;;;;;;5.50;80.19;102374.88;4934072;29;20055;-53
2021/03/03 00:22:10;;;;;;;52.03;23.67;;;;;;;5.52;80.27;102375.41;4931874;29;20047;-53
2021/03/03 00:24:36;;;;;;;58.97;24.63;;;;;;;5.53;80.16;102366.88;4919873;29;20435;-55
2021/03/03 00:27:03;;;;;;;60.08;24.83;;;;;;;5.54;80.25;102373.22;4915272;29;20063;-54
2021/03/03 00:29:29;;;;;;;59.92;26.02;;;;;;;5.53;80.37;102364.16;4914547;29;20107;-54
2021/03/03 00:31:55;;;;;;;53.45;24.98;;;;;;;5.52;80.28;102368.00;4921844;29;20127;-53
2021/03/03 00:34:22;;;;;;;52.95;24.17;;;;;;;5.52;80.23;102368.00;4925835;29;20521;-53
2021/03/03 00:36:48;;;;;;;55.63;23.50;;;;;;;5.51;80.34;102365.50;4926139;29;20446;-51
2021/03/03 00:39:19;;;;;;;56.20;22.98;;;;;;;5.50;80.44;102361.97;4932199;29;20047;-55
2021/03/03 00:41:45;;;;;;;45.90;21.30;;;;;;;5.47;80.30;102365.25;4933033;29;20071;-54
2021/03/03 00:44:11;;;;;;;57.78;24.50;;;;;;;5.42;80.53;102367.16;4933173;29;20111;-55
2021/03/03 00:46:37;;;;;;;51.70;24.08;;;;;;;5.42;80.37;102368.00;4932129;29;20130;-53
2021/03/03 00:49:04;;;;;;;55.65;25.20;;;;;;;5.38;80.04;102372.34;4934209;29;20043;-51
2021/03/03 00:51:31;;;;;;;46.50;22.42;;;;;;;5.34;80.15;102371.28;4931293;29;20267;-49
2021/03/03 00:53:57;;;;;;;66.75;26.35;;;;;;;5.32;80.21;102361.66;4931283;29;20051;-51
2021/03/03 00:56:23;;;;;;;57.45;26.25;;;;;;;5.33;80.33;102363.28;4915969;29;20434;-53
2021/03/03 00:58:49;;;;;;;66.07;23.50;;;;;;;5.34;80.31;102363.03;4932115;29;20122;-51
2021/03/03 01:01:16;;;;;;;56.40;24.42;;;;;;;5.34;80.24;102360.28;4932876;29;20062;-52
2021/03/03 01:03:45;;;;;;;62.17;28.05;;;;;;;5.35;80.19;102363.84;4933128;29;20417;-54
2021/03/03 01:06:13;;;;;;;53.80;22.38;;;;;;;5.36;80.42;102360.00;4926579;29;20162;-51
2021/03/03 01:08:39;;;;;;;58.70;23.90;;;;;;;5.37;80.52;102361.66;4914014;29;20051;-52
2021/03/03 01:11:06;;;;;;;64.35;25.50;;;;;;;5.40;80.56;102364.66;4932998;29;20099;-54
2021/03/03 01:13:33;;;;;;;58.90;23.70;;;;;;;5.45;80.49;102356.44;4933554;29;20130;-53
2021/03/03 01:15:59;;;;;;;54.55;24.10;;;;;;;5.48;80.23;102355.91;4915908;29;20463;-55
2021/03/03 01:18:25;;;;;;;58.20;23.35;;;;;;;5.49;80.35;102360.31;4934653;29;20048;-50
2021/03/03 01:20:52;;;;;;;63.00;24.90;;;;;;;5.48;80.59;102346.84;4934858;29;20047;-53
2021/03/03 01:23:18;;;;;;;60.92;24.95;;;;;;;5.49;80.43;102359.47;4934862;29;20075;-52
2021/03/03 01:25:44;;;;;;;63.15;26.63;;;;;;;5.47;80.60;102357.00;4923386;29;20131;-54
2021/03/03 01:28:11;;;;;;;60.13;25.52;;;;;;;5.48;80.38;102363.34;4934617;29;20470;-51
2021/03/03 01:30:52;;;;;;;65.30;24.95;;;;;;;5.50;80.59;102352.91;4934295;29;20841;-52
2021/03/03 01:33:36;;;;;;;55.38;25.70;;;;;;;5.44;80.67;102349.31;4921647;29;20056;-57
2021/03/03 01:36:03;;;;;;;60.17;24.40;;;;;;;5.42;80.48;102351.50;4915431;29;20123;-51
2021/03/03 01:38:29;;;;;;;62.08;26.25;;;;;;;5.40;80.43;102348.19;4915476;29;20067;-50
2021/03/03 01:40:57;;;;;;;53.50;24.02;;;;;;;5.41;80.18;102347.09;4915865;29;20044;-51
2021/03/03 01:43:23;;;;;;;55.00;22.08;;;;;;;5.38;80.32;102347.66;4927817;29;20513;-52
2021/03/03 01:45:52;;;;;;;60.58;25.92;;;;;;;5.39;80.36;102353.97;4934349;29;20103;-50
2021/03/03 01:48:19;;;;;;;54.78;24.15;;;;;;;5.39;80.43;102352.06;4934532;29;20056;-52
2021/03/03 01:50:45;;;;;;;67.60;25.00;;;;;;;5.42;80.34;102350.69;4934527;29;20090;-50
2021/03/03 01:53:13;;;;;;;59.08;26.42;;;;;;;5.42;80.41;102343.28;4933966;29;20059;-52
2021/03/03 01:55:39;;;;;;;57.10;23.85;;;;;;;5.45;80.22;102345.44;4916077;29;20082;-52
2021/03/03 01:58:06;;;;;;;64.22;26.23;;;;;;;5.47;80.16;102343.28;4932866;29;20074;-52
2021/03/03 02:00:32;;;;;;;59.08;24.20;;;;;;;5.49;80.51;102348.50;4925165;29;20481;-53
2021/03/03 02:02:59;;;;;;;59.50;23.65;;;;;;;5.50;80.29;102341.91;4915268;29;20514;-51
2021/03/03 02:05:28;;;;;;;63.30;25.48;;;;;;;5.50;80.34;102337.25;4921764;29;20040;-56
2021/03/03 02:08:34;;;;;;;52.35;22.00;;;;;;;5.48;80.59;102333.13;4933709;29;20048;-50
2021/03/03 02:11:20;;;;;;;60.15;26.15;;;;;;;5.48;80.56;102333.94;4921887;29;20087;-51
2021/03/03 02:13:59;;;;;;;63.50;26.35;;;;;;;5.45;80.36;102342.69;4921003;29;20464;-52
2021/03/03 02:16:27;;;;;;;62.95;24.70;;;;;;;5.42;80.39;102334.19;4935065;29;20048;-54
2021/03/03 02:18:55;;;;;;;59.30;24.98;;;;;;;5.38;80.62;102336.66;4937716;29;20395;-50
2021/03/03 02:21:40;;;;;;;57.22;25.05;;;;;;;5.36;80.47;102325.13;4936965;29;20058;-54
2021/03/03 02:24:15;;;;;;;56.10;23.70;;;;;;;5.34;80.66;102321.00;4928475;29;20075;-49
2021/03/03 02:26:43;;;;;;;60.03;24.73;;;;;;;5.35;80.54;102319.88;4937557;29;20044;-53
2021/03/03 02:29:12;;;;;;;55.92;25.50;;;;;;;5.37;80.59;102315.81;4937101;29;20106;-52
2021/03/03 02:31:41;;;;;;;55.88;24.40;;;;;;;5.39;80.57;102316.34;4936925;29;20107;-56
2021/03/03 02:34:09;;;;;;;58.15;26.98;;;;;;;5.40;80.44;102323.47;4920322;29;20047;-53
2021/03/03 02:36:37;;;;;;;53.90;21.83;;;;;;;5.36;80.55;102319.63;4937138;29;20047;-55
2021/03/03 02:39:05;;;;;;;60.58;25.40;;;;;;;5.36;80.42;102314.13;4936784;29;20050;-56
2021/03/03 02:41:33;;;;;;;64.53;27.42;;;;;;;5.35;80.88;102307.00;4937033;29;20106;-52
2021/03/03 02:44:04;;;;;;;64.35;25.55;;;;;;;5.34;80.61;102310.84;4937405;29;20498;-55
2021/03/03 02:46:32;;;;;;;59.28;26.63;;;;;;;5.35;80.53;102317.97;4937272;29;20130;-50
2021/03/03 02:49:00;;;;;;;56.35;25.70;;;;;;;5.34;80.72;102316.34;4936406;29;20130;-54
2021/03/03 02:51:26;;;;;;;60.85;25.85;;;;;;;5.38;80.79;102308.38;4936550;29;20094;-52
2021/03/03 02:53:53;;;;;;;58.75;25.77;;;;;;;5.37;80.54;102304.00;4935906;29;20047;-50
2021/03/03 02:56:19;;;;;;;61.70;26.13;;;;;;;5.36;80.65;102296.84;4937361;29;20852;-51
2021/03/03 02:58:45;;;;;;;59.08;25.15;;;;;;;5.33;80.60;102302.88;4934679;29;20048;-57
2021/03/03 03:01:14;;;;;;;59.83;24.73;;;;;;;5.30;80.79;102293.25;4918110;29;20052;-52
2021/03/03 03:03:50;;;;;;;60.17;27.15;;;;;;;5.28;80.74;102300.13;4934020;29;20055;-51
2021/03/03 03:06:21;;;;;;;58.67;26.50;;;;;;;5.29;80.66;102290.78;4936710;29;20122;-49
2021/03/03 03:08:49;;;;;;;54.10;24.93;;;;;;;5.31;80.77;102292.16;4935962;29;20043;-52
2021/03/03 03:11:20;;;;;;;64.47;25.98;;;;;;;5.33;80.77;102297.38;4935912;29;21042;-52
2021/03/03 03:13:49;;;;;;;65.05;26.10;;;;;;;5.32;80.74;102302.03;4936664;29;20131;-50
2021/03/03 03:16:17;;;;;;;56.90;24.30;;;;;;;5.34;80.69;102299.03;4936314;29;20135;-53
2021/03/03 03:18:51;;;;;;;58.33;23.85;;;;;;;5.35;80.70;102293.25;4936240;29;20095;-54
2021/03/03 03:21:19;;;;;;;65.07;26.42;;;;;;;5.35;80.83;102289.69;4936842;29;20047;-52
2021/03/03 03:23:46;;;;;;;59.55;24.75;;;;;;;5.36;81.04;102296.84;4935677;29;20415;-52
2021/03/03 03:26:12;;;;;;;65.85;26.13;;;;;;;5.36;80.74;102286.69;4935872;29;20086;-57
2021/03/03 03:28:42;;;;;;;57.53;24.30;;;;;;;5.40;80.92;102292.47;4933959;29;20032;-55
2021/03/03 03:31:11;;;;;;;69.97;25.15;;;;;;;5.41;80.86;102278.44;4919485;29;20063;-52
2021/03/03 03:33:38;;;;;;;67.90;28.52;;;;;;;5.45;80.66;102289.72;4935985;29;20123;-51
2021/03/03 03:36:05;;;;;;;68.13;26.80;;;;;;;5.45;80.78;102284.22;4935837;29;20079;-51
2021/03/03 03:38:33;;;;;;;60.53;24.35;;;;;;;5.46;80.82;102286.69;4934085;29;20584;-52
2021/03/03 03:41:05;;;;;;;55.33;23.25;;;;;;;5.46;80.78;102289.44;4915895;29;20044;-53
2021/03/03 03:43:33;;;;;;;68.07;26.20;;;;;;;5.46;81.00;102278.44;4922345;29;20047;-51
2021/03/03 03:46:04;;;;;;;58.70;23.92;;;;;;;5.46;81.00;102278.44;4917242;29;20574;-50
2021/03/03 03:48:36;;;;;;;59.55;24.55;;;;;;;5.43;80.68;102280.91;4935264;29;20047;-51
2021/03/03 03:51:03;;;;;;;;;;;;;;;5.40;81.09;102275.97;4936887;29;20458;-53
2021/03/03 03:53:33;;;;;;;63.33;24.92;;;;;;;5.41;80.87;102275.69;4934919;29;19936;-50
2021/03/03 03:56:00;;;;;;;63.65;26.08;;;;;;;5.42;80.83;102276.53;4935486;29;20075;-54
2021/03/03 03:58:26;;;;;;;63.67;26.85;;;;;;;5.37;80.84;102271.88;4935414;29;20075;-54
2021/03/03 04:00:54;;;;;;;58.70;25.98;;;;;;;5.39;80.89;102279.81;4934289;29;20055;-55
2021/03/03 04:03:20;;;;;;;59.35;25.88;;;;;;;5.38;80.93;102280.91;4935230;29;20483;-50
2021/03/03 04:05:47;;;;;;;66.22;28.30;;;;;;;5.37;81.11;102280.09;4935213;29;20168;-54
2021/03/03 04:08:13;;;;;;;69.57;30.30;;;;;;;5.36;81.22;102281.19;4934970;29;20046;-51
2021/03/03 04:10:41;;;;;;;65.63;27.25;;;;;;;5.37;80.88;102287.50;4929721;29;20059;-51
2021/03/03 04:13:08;;;;;;;65.20;27.77;;;;;;;5.36;81.12;102286.69;4934694;29;20099;-49
2021/03/03 04:15:35;;;;;;;66.22;27.15;;;;;;;5.35;81.09;102279.53;4934754;29;20483;-51
2021/03/03 04:18:04;;;;;;;56.17;25.70;;;;;;;5.36;81.12;102275.69;4934753;29;20054;-54
2021/03/03 04:20:31;;;;;;;60.28;26.35;;;;;;;5.38;81.21;102278.97;4918291;29;20075;-51
2021/03/03 04:22:57;;;;;;;75.43;29.67;;;;;;;5.38;81.18;102278.97;4935824;29;20090;-52
2021/03/03 04:25:23;;;;;;;69.80;29.23;;;;;;;5.38;80.97;102273.50;4921287;29;20067;-54
2021/03/03 04:27:49;;;;;;;67.32;28.55;;;;;;;5.39;80.95;102274.31;4931365;29;20050;-54
2021/03/03 04:30:18;;;;;;;71.22;27.80;;;;;;;5.39;81.01;102275.16;4934796;29;20077;-55
2021/03/03 04:33:07;;;;;;;69.65;29.10;;;;;;;5.38;80.88;102281.72;4935107;29;20420;-56
2021/03/03 04:35:34;;;;;;;70.45;27.33;;;;;;;5.36;81.33;102269.38;4934510;29;20514;-52
2021/03/03 04:38:00;;;;;;;73.82;30.27;;;;;;;5.38;81.10;102273.50;4934878;29;20090;-53
2021/03/03 04:40:30;;;;;;;78.13;31.08;;;;;;;5.37;81.22;102274.59;4933988;29;20498;-53
2021/03/03 04:42:56;;;;;;;69.57;26.85;;;;;;;5.39;81.21;102275.16;4935118;29;20531;-54
2021/03/03 04:45:22;;;;;;;70.05;28.08;;;;;;;5.38;81.47;102272.66;4934794;29;20054;-52
2021/03/03 04:47:53;;;;;;;66.95;28.13;;;;;;;5.34;81.13;102266.91;4935113;29;20091;-53
2021/03/03 04:50:20;;;;;;;68.95;27.25;;;;;;;5.36;81.50;102272.13;4934527;29;20050;-50
2021/03/03 04:52:46;;;;;;;73.57;27.75;;;;;;;5.38;80.98;102275.41;4934725;29;20048;-51
2021/03/03 04:55:12;;;;;;;75.03;30.02;;;;;;;5.37;81.20;102271.88;4933878;29;20078;-54
2021/03/03 04:57:39;;;;;;;75.72;28.50;;;;;;;5.36;81.37;102272.94;4934426;29;20090;-53
2021/03/03 05:00:06;;;;;;;67.88;29.13;;;;;;;5.36;81.05;102281.19;4933036;29;20112;-52
2021/03/03 05:02:33;;;;;;;78.72;29.08;;;;;;;5.33;81.58;102278.16;4915777;29;20450;-56
2021/03/03 05:05:03;;;;;;;81.97;30.38;;;;;;;5.36;81.34;102285.84;4930973;29;20482;-52
2021/03/03 05:07:29;;;;;;;76.47;28.90;;;;;;;5.33;81.17;102283.66;4934052;29;20769;-51
2021/03/03 05:09:55;;;;;;;68.15;28.20;;;;;;;5.32;81.11;102280.06;4930709;29;20413;-53
2021/03/03 05:12:23;;;;;;;67.55;27.70;;;;;;;5.33;81.17;102278.97;4931658;29;20059;-54
2021/03/03 05:14:49;;;;;;;67.97;30.50;;;;;;;5.34;81.50;102277.06;4934287;29;20056;-54
2021/03/03 05:17:15;;;;;;;74.63;28.88;;;;;;;5.32;81.35;102284.75;4934459;29;20118;-55
2021/03/03 05:19:45;;;;;;;64.60;28.30;;;;;;;5.30;81.33;102279.53;4932863;29;20044;-53
2021/03/03 05:22:11;;;;;;;78.53;29.20;;;;;;;5.31;81.38;102270.19;4934757;29;20151;-58
2021/03/03 05:24:38;;;;;;;84.85;29.90;;;;;;;5.32;81.29;102280.06;4932961;29;20130;-55
2021/03/03 05:27:04;;;;;;;72.60;28.23;;;;;;;5.33;81.44;102268.00;4934407;29;20056;-52
2021/03/03 05:29:31;;;;;;;74.45;29.65;;;;;;;5.33;81.28;102269.91;4928364;29;20510;-54
2021/03/03 05:31:59;;;;;;;72.72;28.13;;;;;;;5.34;81.73;102269.66;4930606;29;20043;-55
2021/03/03 05:34:26;;;;;;;74.70;27.60;;;;;;;5.35;81.59;102267.72;4932283;29;20470;-53
2021/03/03 05:36:58;;;;;;;67.43;29.42;;;;;;;5.34;81.71;102264.16;4926100;29;20052;-51
2021/03/03 05:39:24;;;;;;;75.28;28.92;;;;;;;5.31;81.59;102267.44;4920156;29;20043;-51
2021/03/03 05:41:50;;;;;;;77.80;28.58;;;;;;;5.33;81.74;102268.00;4932263;29;20051;-52
2021/03/03 05:44:17;;;;;;;82.97;33.67;;;;;;;5.36;81.66;102269.38;4931551;29;20047;-52
2021/03/03 05:46:49;;;;;;;67.68;27.23;;;;;;;5.36;81.34;102269.38;4931870;29;20056;-53
2021/03/03 05:49:19;;;;;;;73.65;28.52;;;;;;;5.34;81.50;102266.91;4932236;29;20118;-50
2021/03/03 05:51:46;;;;;;;65.85;28.20;;;;;;;5.37;81.40;102266.38;4931353;29;20114;-54
2021/03/03 05:54:15;;;;;;;67.95;26.45;;;;;;;5.36;82.04;102270.19;4931209;29;20099;-53
2021/03/03 05:56:43;;;;;;;75.50;30.27;;;;;;;5.37;81.56;102268.28;4932431;29;20102;-50
2021/03/03 05:59:11;;;;;;;72.28;28.73;;;;;;;5.35;81.65;102260.31;4931868;29;20052;-51
2021/03/03 06:01:39;;;;;;;75.47;29.65;;;;;;;5.36;82.05;102272.13;4931992;29;20066;-50
2021/03/03 06:04:22;;;;;;;66.32;25.63;;;;;;;5.37;81.63;102269.13;4931093;29;20217;-51
2021/03/03 06:06:48;;;;;;;71.05;26.80;;;;;;;5.37;81.87;102268.28;4931492;29;20122;-56
2021/03/03 06:09:14;;;;;;;77.45;29.52;;;;;;;5.36;81.92;102274.88;4929662;29;20131;-53
2021/03/03 06:11:41;;;;;;;77.97;28.38;;;;;;;5.34;81.74;102269.66;4930915;29;20086;-52
2021/03/03 06:14:07;;;;;;;74.25;28.20;;;;;;;5.35;81.71;102274.03;4918253;29;20130;-55
2021/03/03 06:16:34;;;;;;;86.25;30.23;;;;;;;5.32;82.20;102280.06;4918739;29;20123;-53
2021/03/03 06:19:03;;;;;;;77.10;30.15;;;;;;;5.32;82.11;102282.81;4932271;29;20047;-50
2021/03/03 06:21:31;;;;;;;65.15;26.88;;;;;;;5.31;82.05;102277.59;4917936;29;20108;-54
2021/03/03 06:24:10;;;;;;;70.47;29.10;;;;;;;5.30;82.09;102279.53;4923212;29;20040;-51
2021/03/03 06:26:59;;;;;;;68.35;27.08;;;;;;;5.30;81.99;102281.44;4926953;29;20135;-53
2021/03/03 06:29:25;;;;;;;73.13;30.30;;;;;;;5.32;82.13;102269.09;4929605;29;20079;-53
2021/03/03 06:31:52;;;;;;;79.72;32.05;;;;;;;5.32;81.95;102274.56;4931269;29;20565;-52
2021/03/03 06:34:48;;;;;;;77.55;28.70;;;;;;;5.29;81.88;102269.66;4913810;29;20063;-52
2021/03/03 06:37:15;;;;;;;79.78;30.38;;;;;;;5.31;81.92;102269.38;4910998;29;20044;-51
2021/03/03 06:39:42;;;;;;;78.38;29.83;;;;;;;5.33;81.89;102270.75;4926008;29;20052;-51
2021/03/03 06:42:10;;;;;;;75.65;30.98;;;;;;;5.33;81.57;102275.41;4932927;29;20058;-52
2021/03/03 06:44:48;;;;;;;82.38;32.70;;;;;;;5.33;81.99;102270.75;4931565;29;20058;-55
2021/03/03 06:47:16;;;;;;;72.25;29.85;;;;;;;5.34;81.61;102266.91;4928692;29;20140;-51
2021/03/03 06:49:46;;;;;;;71.63;28.63;;;;;;;5.31;81.72;102274.88;4912909;29;20056;-53
2021/03/03 06:52:13;;;;;;;80.03;28.98;;;;;;;5.30;82.04;102282.28;4928323;29;20051;-52
2021/03/03 06:54:40;;;;;;;79.55;31.45;;;;;;;5.30;81.98;102287.75;4921896;29;20111;-52
2021/03/03 06:57:14;;;;;;;90.13;32.28;;;;;;;5.28;81.98;102289.13;4913389;29;20490;-51
2021/03/03 06:59:44;;;;;;;79.45;31.08;;;;;;;5.27;82.13;102282.00;4926479;29;20422;-50
2021/03/03 07:02:15;;;;;;;79.70;31.15;;;;;;;5.27;82.16;102282.00;4931870;29;20075;-51
2021/03/03 07:04:59;;;;;;;83.88;29.35;;;;;;;5.28;81.90;102287.22;4935381;29;20050;-54
2021/03/03 07:07:26;;;;;;;80.93;32.92;;;;;;;5.26;81.88;102281.19;4935841;29;20478;-51
2021/03/03 07:09:58;;;;;;;70.63;28.27;;;;;;;5.22;81.97;102280.06;4934529;29;20048;-52
2021/03/03 07:12:30;;;;;;;74.30;30.70;;;;;;;5.23;81.65;102287.22;4933352;29;20071;-51
2021/03/03 07:15:05;;;;;;;59.70;24.75;;;;;;;5.25;81.88;102278.69;4935234;29;20076;-54
2021/03/03 07:17:33;;;;;;;64.72;26.48;;;;;;;5.25;81.99;102281.44;4916123;29;20079;-55
2021/03/03 07:20:09;;;;;;;69.87;27.50;;;;;;;5.25;81.83;102287.75;4916390;29;20099;-54
2021/03/03 07:22:46;;;;;;;72.38;27.20;;;;;;;5.24;81.88;102290.78;4922395;29;20051;-55
2021/03/03 07:25:14;;;;;;;72.90;27.60;;;;;;;5.24;82.01;102290.78;4929173;29;20048;-52
2021/03/03 07:27:43;;;;;;;71.97;28.48;;;;;;;5.22;81.61;102296.53;4934650;29;20122;-55
2021/03/03 07:30:16;;;;;;;72.35;26.55;;;;;;;5.24;81.89;102294.34;4932965;29;20503;-57
2021/03/03 07:32:43;;;;;;;70.80;27.23;;;;;;;5.28;81.86;102289.97;4934825;29;20040;-52
2021/03/03 07:35:28;;;;;;;70.22;27.05;;;;;;;5.30;81.63;102293.25;4933548;29;20565;-54
2021/03/03 07:37:56;;;;;;;66.60;25.17;;;;;;;5.31;81.78;102294.91;4935462;29;20051;-53
2021/03/03 07:40:31;;;;;;;64.95;27.33;;;;;;;5.32;81.80;102296.53;4931275;29;20079;-56
2021/03/03 07:43:00;;;;;;;67.53;27.35;;;;;;;5.35;81.71;102295.19;4934642;29;20058;-52
2021/03/03 07:45:54;;;;;;;76.18;28.02;;;;;;;5.32;81.80;102290.25;4935102;29;20052;-52
2021/03/03 07:48:21;;;;;;;71.25;29.30;;;;;;;5.34;81.60;102297.13;4931769;29;20082;-54
2021/03/03 07:50:48;;;;;;;74.50;26.58;;;;;;;5.36;81.59;102305.06;4932996;29;20047;-51
2021/03/03 07:53:16;;;;;;;68.35;26.20;;;;;;;5.32;81.63;102299.28;4935255;29;20450;-52
2021/03/03 07:55:44;;;;;;;69.80;26.75;;;;;;;5.34;81.62;102305.34;4933242;29;20051;-52
2021/03/03 07:58:11;;;;;;;67.07;26.45;;;;;;;5.35;81.49;102296.00;4933601;29;20047;-53
2021/03/03 08:00:42;;;;;;;71.35;27.42;;;;;;;5.38;81.63;102300.97;4932743;29;20058;-52
2021/03/03 08:03:09;;;;;;;65.30;26.00;;;;;;;5.38;81.65;102292.72;4913209;29;20052;-53
2021/03/03 08:05:51;;;;;;;63.83;26.88;;;;;;;5.39;81.67;102304.53;4933431;29;20059;-59
2021/03/03 08:08:29;;;;;;;61.40;26.45;;;;;;;5.42;81.73;102304.81;4932006;29;20048;-54
2021/03/03 08:10:58;;;;;;;75.95;28.00;;;;;;;5.44;81.27;102294.38;4906446;29;20055;-53
2021/03/03 08:13:35;;;;;;;60.42;24.05;;;;;;;5.43;81.55;102303.69;4933705;29;20050;-56
2021/03/03 08:16:03;;;;;;;61.97;24.17;;;;;;;5.47;81.61;102302.06;4933065;29;20079;-53
2021/03/03 08:18:36;;;;;;;69.00;26.20;;;;;;;5.50;81.40;102298.78;4931560;29;20044;-54
2021/03/03 08:21:06;;;;;;;66.65;23.23;;;;;;;5.53;81.54;102309.19;4927488;29;20400;-50
2021/03/03 08:23:33;;;;;;;73.28;26.13;;;;;;;5.53;81.27;102313.91;4929291;29;20056;-53
2021/03/03 08:25:59;;;;;;;70.13;28.08;;;;;;;5.58;81.17;102311.16;4912698;29;20051;-54
2021/03/03 08:28:26;;;;;;;70.45;26.40;;;;;;;5.59;81.21;102318.28;4932390;29;20051;-50
2021/03/03 08:31:13;;;;;;;74.80;26.08;;;;;;;5.62;81.46;102316.91;4930360;29;20139;-51
2021/03/03 08:33:42;;;;;;;69.50;28.90;;;;;;;5.66;81.04;102299.63;4915739;29;20064;-57
2021/03/03 08:36:24;;;;;;;60.80;27.30;;;;;;;5.67;81.32;102305.91;4915116;29;20067;-58
2021/03/03 08:38:53;;;;;;;58.88;24.63;;;;;;;5.68;81.00;102308.41;4933789;29;20044;-52
2021/03/03 08:41:22;;;;;;;64.57;26.38;;;;;;;5.68;81.21;102304.81;4932743;29;20054;-53
2021/03/03 08:43:58;;;;;;;62.70;25.40;;;;;;;5.68;81.08;102310.31;4914804;29;20526;-50
2021/03/03 08:46:24;;;;;;;62.67;24.70;;;;;;;5.71;81.19;102302.38;4915745;29;20048;-52
2021/03/03 08:48:57;;;;;;;59.80;25.63;;;;;;;5.75;80.99;102299.88;4932965;29;20062;-56
2021/03/03 08:51:36;;;;;;;59.70;25.08;;;;;;;5.76;80.98;102296.88;4932897;29;20098;-51
2021/03/03 08:54:13;;;;;;;59.65;26.42;;;;;;;5.77;80.99;102293.00;4914199;29;20136;-53
2021/03/03 08:56:43;;;;;;;62.00;24.27;;;;;;;5.83;81.04;102296.56;4924437;29;20055;-51
2021/03/03 08:59:10;;;;;;;59.17;23.70;;;;;;;5.87;80.78;102294.97;4933507;29;20134;-51
2021/03/03 09:02:15;;;;;;;61.35;27.30;;;;;;;5.89;80.57;102296.34;4931459;29;20047;-51
2021/03/03 09:04:43;;;;;;;55.90;25.50;;;;;;;5.91;80.80;102296.06;4920512;29;20054;-50
2021/03/03 09:07:18;;;;;;;63.92;27.42;;;;;;;5.91;80.83;102291.38;4933097;29;20075;-52
2021/03/03 09:09:51;;;;;;;60.28;26.05;;;;;;;5.95;80.87;102291.66;4932037;29;20490;-57
2021/03/03 09:12:20;;;;;;;57.38;23.35;;;;;;;5.97;80.68;102294.94;4924282;29;20052;-55
2021/03/03 09:14:52;;;;;;;62.20;25.52;;;;;;;5.98;80.65;102297.41;4930605;29;20430;-53
2021/03/03 09:17:27;;;;;;;60.97;26.75;;;;;;;6.00;80.62;102297.97;4922564;29;20086;-53
2021/03/03 09:20:00;;;;;;;67.28;26.63;;;;;;;5.99;80.46;102301.00;4931421;29;20055;-55
2021/03/03 09:22:29;;;;;;;61.05;27.80;;;;;;;6.02;80.75;102316.94;4910472;29;20115;-57
2021/03/03 09:25:05;;;;;;;57.85;24.27;;;;;;;6.03;80.48;102308.44;4927540;29;20107;-57
2021/03/03 09:27:32;;;;;;;64.53;27.85;;;;;;;6.00;80.20;102308.16;4921263;29;20139;-53
2021/03/03 09:29:58;;;;;;;64.75;26.65;;;;;;;5.98;80.66;102305.66;4927192;29;20415;-53
2021/03/03 09:32:25;;;;;;;62.05;27.25;;;;;;;6.01;80.47;102309.81;4918650;29;20044;-57
2021/03/03 09:34:53;;;;;;;62.90;27.52;;;;;;;6.03;80.29;102307.59;4931217;29;20043;-58
2021/03/03 09:37:21;;;;;;;59.67;25.90;;;;;;;6.04;80.36;102314.72;4931077;29;20044;-58
2021/03/03 09:40:08;;;;;;;59.63;25.98;;;;;;;6.03;80.23;102313.09;4927056;29;20043;-57
2021/03/03 09:42:46;;;;;;;64.38;25.98;;;;;;;6.05;80.36;102316.38;4913536;29;20048;-57
2021/03/03 09:45:17;;;;;;;60.25;28.45;;;;;;;6.08;79.97;102315.84;4928048;29;20502;-57
2021/03/03 09:47:43;;;;;;;63.00;26.25;;;;;;;6.08;80.28;102310.34;4931674;29;20047;-59
2021/03/03 09:50:17;;;;;;;60.17;26.60;;;;;;;6.08;80.31;102310.34;4898483;29;20059;-55
2021/03/03 09:52:46;;;;;;;58.55;25.75;;;;;;;6.09;80.17;102311.97;4927428;29;20134;-55
2021/03/03 09:55:14;;;;;;;61.10;25.85;;;;;;;6.10;79.99;102308.13;4930683;29;20091;-58
2021/03/03 09:57:42;;;;;;;62.30;28.23;;;;;;;6.09;80.26;102307.31;4929944;29;20131;-55
2021/03/03 10:00:10;;;;;;;57.80;27.10;;;;;;;6.05;80.06;102310.88;4924835;29;20561;-57
2021/03/03 10:02:46;;;;;;;65.53;28.33;;;;;;;6.06;80.10;102312.56;4925906;29;20495;-56
2021/03/03 10:05:23;;;;;;;59.42;25.27;;;;;;;6.10;80.31;102303.47;4919518;29;20052;-56
2021/03/03 10:07:57;;;;;;;59.05;27.33;;;;;;;6.14;79.99;102301.78;4899089;29;20803;-57
2021/03/03 10:10:29;;;;;;;57.35;27.25;;;;;;;6.16;80.01;102297.94;4930745;29;20052;-54
2021/03/03 10:12:55;;;;;;;62.97;26.55;;;;;;;6.20;79.94;102307.28;4931060;29;20157;-54
2021/03/03 10:15:31;;;;;;;54.50;23.33;;;;;;;6.22;79.91;102314.19;4932515;29;20075;-53
2021/03/03 10:18:01;;;;;;;61.70;26.10;;;;;;;6.23;80.10;102301.22;4929765;29;20053;-60
2021/03/03 10:20:32;;;;;;;53.40;25.55;;;;;;;6.22;80.00;102297.69;4923114;29;20051;-56
2021/03/03 10:23:14;;;;;;;57.22;26.38;;;;;;;6.26;79.99;102301.50;4928207;29;20036;-54
2021/03/03 10:25:51;;;;;;;56.67;26.02;;;;;;;6.26;79.53;102301.50;4921425;29;20683;-55
2021/03/03 10:28:21;;;;;;;56.90;25.83;;;;;;;6.24;79.58;102306.47;4922908;29;20044;-52
2021/03/03 10:30:49;;;;;;;50.45;24.33;;;;;;;6.24;79.65;102309.22;4929586;29;20411;-53
2021/03/03 10:33:25;;;;;;;54.38;25.80;;;;;;;6.26;79.27;102307.00;4930002;29;20055;-56
2021/03/03 10:35:54;;;;;;;54.10;25.48;;;;;;;6.28;79.60;102310.28;4930708;29;20517;-57
2021/03/03 10:38:24;;;;;;;53.50;25.27;;;;;;;6.30;79.29;102312.78;4917816;29;20056;-54
2021/03/03 10:40:53;;;;;;;59.03;27.63;;;;;;;6.33;79.53;102307.53;4917894;29;20075;-56
2021/03/03 10:43:21;;;;;;;66.53;28.35;;;;;;;6.34;79.49;102300.09;4926604;29;20051;-55
2021/03/03 10:46:07;;;;;;;59.17;25.00;;;;;;;6.33;79.06;102296.53;4933858;29;20035;-55
2021/03/03 10:48:36;;;;;;;59.80;24.52;;;;;;;6.40;79.44;102299.81;4934825;29;20058;-57
2021/03/03 10:51:04;;;;;;;57.33;25.33;;;;;;;6.48;79.03;102301.19;4935163;29;20052;-55
2021/03/03 10:53:48;;;;;;;54.00;25.02;;;;;;;6.49;79.13;102300.88;4920261;29;20151;-56
2021/03/03 10:56:29;;;;;;;56.15;25.38;;;;;;;6.49;79.00;102300.06;4918128;29;20055;-52
2021/03/03 10:59:06;;;;;;;55.63;27.27;;;;;;;6.48;79.03;102304.75;4916679;29;20079;-54
2021/03/03 11:01:46;;;;;;;58.78;27.30;;;;;;;6.53;78.84;102302.00;4932824;29;20051;-54
2021/03/03 11:04:13;;;;;;;58.85;24.90;;;;;;;6.55;78.81;102296.19;4933609;29;20095;-57
2021/03/03 11:06:40;;;;;;;54.90;24.55;;;;;;;6.58;78.80;102293.72;4934208;29;20043;-57
2021/03/03 11:09:10;;;;;;;54.03;24.98;;;;;;;6.61;78.57;102295.91;4917185;29;20562;-53
2021/03/03 11:11:46;;;;;;;50.70;24.33;;;;;;;6.64;78.50;102298.09;4935710;29;20047;-57
2021/03/03 11:14:12;;;;;;;53.03;24.85;;;;;;;6.64;78.49;102295.34;4922718;29;20120;-52
2021/03/03 11:16:38;;;;;;;55.10;27.33;;;;;;;6.63;78.50;102296.44;4934379;29;20095;-58
2021/03/03 11:19:05;;;;;;;53.25;25.83;;;;;;;6.59;78.56;102294.53;4934419;29;20079;-56
2021/03/03 11:21:32;;;;;;;61.20;25.05;;;;;;;6.62;78.50;102286.53;4932581;29;20510;-56
2021/03/03 11:23:59;;;;;;;56.38;25.02;;;;;;;6.63;78.42;102279.94;4931976;29;20098;-52
2021/03/03 11:26:25;;;;;;;58.75;24.02;;;;;;;6.68;78.37;102288.16;4931456;29;20043;-55
2021/03/03 11:28:51;;;;;;;56.55;25.70;;;;;;;6.67;78.37;102292.00;4934219;29;20047;-55